createdAt,value
2017-08-24T00:00:21.595Z,14.54
2017-08-24T00:02:51.375Z,14.67
2017-08-24T00:05:20.888Z,14.70
2017-08-24T00:07:51.335Z,14.56
2017-08-24T00:10:20.728Z,14.73
2017-08-24T00:12:51.363Z,15.02
2017-08-24T00:15:20.949Z,15.16
2017-08-24T00:17:52.237Z,15.29
2017-08-24T00:20:21.635Z,14.72
2017-08-24T00:22:51.536Z,14.79
2017-08-24T00:25:21.095Z,15.05
2017-08-24T00:27:51.647Z,15.11
2017-08-24T00:30:21.499Z,14.78
2017-08-24T00:32:52.003Z,15.01
2017-08-24T00:35:21.407Z,15.19
2017-08-24T00:37:51.354Z,15.25
2017-08-24T00:40:20.814Z,15.34
2017-08-24T00:42:55.712Z,15.33
2017-08-24T00:45:25.378Z,15.37
2017-08-24T00:47:54.800Z,15.33
2017-08-24T00:50:24.186Z,15.36
2017-08-24T00:52:53.961Z,15.32
2017-08-24T00:55:23.422Z,15.34
2017-08-24T00:57:52.994Z,15.33
2017-08-24T01:00:22.979Z,15.34
2017-08-24T01:02:53.020Z,14.77
2017-08-24T01:05:22.475Z,14.87
2017-08-24T01:07:52.598Z,14.78
2017-08-24T01:10:21.984Z,14.37
2017-08-24T01:12:53.097Z,14.57
2017-08-24T01:15:23.087Z,14.66
2017-08-24T01:17:52.621Z,14.73
2017-08-24T01:20:22.132Z,14.41
2017-08-24T01:22:52.123Z,14.26
2017-08-24T01:25:21.736Z,14.20
2017-08-24T01:27:51.556Z,14.45
2017-08-24T01:30:21.370Z,14.40
2017-08-24T01:32:51.905Z,14.51
2017-08-24T01:35:21.154Z,14.63
2017-08-24T01:37:52.440Z,14.23
2017-08-24T01:40:22.371Z,14.12
2017-08-24T01:42:51.970Z,14.48
2017-08-24T01:45:21.877Z,14.57
2017-08-24T01:47:51.675Z,14.75
2017-08-24T01:50:21.382Z,14.76
2017-08-24T01:52:52.219Z,14.10
2017-08-24T01:55:22.054Z,14.01
2017-08-24T01:57:51.772Z,13.80
2017-08-24T02:00:21.397Z,13.72
2017-08-24T02:02:53.658Z,13.90
2017-08-24T02:05:23.167Z,13.90
2017-08-24T02:07:52.829Z,13.68
2017-08-24T02:10:22.645Z,13.82
2017-08-24T02:12:55.719Z,13.87
2017-08-24T02:15:26.685Z,14.05
2017-08-24T02:17:56.215Z,13.99
2017-08-24T02:20:25.751Z,13.98
2017-08-24T02:22:55.871Z,13.94
2017-08-24T02:25:25.314Z,14.02
2017-08-24T02:27:55.127Z,13.98
2017-08-24T02:30:26.135Z,13.88
2017-08-24T02:32:55.625Z,13.84
2017-08-24T02:35:25.486Z,13.89
2017-08-24T02:37:55.197Z,13.77
2017-08-24T02:40:24.804Z,13.82
2017-08-24T02:42:54.275Z,13.85
2017-08-24T02:45:24.046Z,13.89
2017-08-24T02:47:54.147Z,13.82
2017-08-24T02:50:23.756Z,13.98
2017-08-24T02:52:53.531Z,13.87
2017-08-24T02:55:22.764Z,13.76
2017-08-24T02:57:52.590Z,13.90
2017-08-24T03:00:22.255Z,13.99
2017-08-24T03:02:53.341Z,14.15
2017-08-24T03:05:22.903Z,13.99
2017-08-24T03:07:53.435Z,14.18
2017-08-24T03:10:22.705Z,14.16
2017-08-24T03:12:55.786Z,14.13
2017-08-24T03:15:26.420Z,14.02
2017-08-24T03:17:56.135Z,13.97
2017-08-24T03:20:32.345Z,13.92
2017-08-24T03:23:02.476Z,13.74
2017-08-24T03:25:31.755Z,13.57
2017-08-24T03:28:01.078Z,13.84
2017-08-24T03:30:31.070Z,14.12
2017-08-24T03:33:00.499Z,14.25
2017-08-24T03:35:30.083Z,14.33
2017-08-24T03:37:59.739Z,14.37
2017-08-24T03:40:29.486Z,14.38
2017-08-24T03:42:58.962Z,14.39
2017-08-24T03:45:30.935Z,14.42
2017-08-24T03:48:00.127Z,14.42
2017-08-24T03:50:29.380Z,14.15
2017-08-24T03:52:59.296Z,14.33
2017-08-24T03:55:28.664Z,14.35
2017-08-24T03:57:58.124Z,14.42
2017-08-24T04:00:27.550Z,14.48
2017-08-24T04:02:57.324Z,14.54
2017-08-24T04:05:27.020Z,14.50
2017-08-24T04:07:56.888Z,14.48
2017-08-24T04:10:26.715Z,14.14
2017-08-24T04:12:56.024Z,14.30
2017-08-24T04:15:25.808Z,14.41
2017-08-24T04:17:55.307Z,14.33
2017-08-24T04:20:24.858Z,13.94
2017-08-24T04:22:54.231Z,13.99
2017-08-24T04:25:23.904Z,14.24
2017-08-24T04:27:53.404Z,14.35
2017-08-24T04:30:22.762Z,14.38
2017-08-24T04:32:53.139Z,14.49
2017-08-24T04:35:22.643Z,14.50
2017-08-24T04:37:53.610Z,14.10
2017-08-24T04:40:24.089Z,14.27
2017-08-24T04:42:54.295Z,14.50
2017-08-24T04:45:26.112Z,14.55
2017-08-24T04:47:56.155Z,14.65
2017-08-24T04:50:33.516Z,14.67
2017-08-24T04:53:03.216Z,14.77
2017-08-24T04:55:33.546Z,14.85
2017-08-24T04:58:03.228Z,14.35
2017-08-24T05:00:35.001Z,14.27
2017-08-24T05:03:09.902Z,14.28
2017-08-24T05:05:40.408Z,14.21
2017-08-24T05:08:12.636Z,14.18
2017-08-24T05:10:43.591Z,14.31
2017-08-24T05:13:12.955Z,14.18
2017-08-24T05:15:42.382Z,14.23
2017-08-24T05:18:15.298Z,14.25
2017-08-24T05:20:44.727Z,14.32
2017-08-24T05:23:14.626Z,14.60
2017-08-24T05:25:44.075Z,14.78
2017-08-24T05:28:13.254Z,14.67
2017-08-24T05:30:43.750Z,14.71
2017-08-24T05:33:13.883Z,14.65
2017-08-24T05:35:43.195Z,14.56
2017-08-24T05:38:12.732Z,14.61
2017-08-24T05:40:41.924Z,14.62
2017-08-24T05:43:11.222Z,14.66
2017-08-24T05:45:40.719Z,14.62
2017-08-24T05:48:09.925Z,14.85
2017-08-24T05:50:39.191Z,14.81
2017-08-24T05:53:08.975Z,14.65
2017-08-24T05:55:38.210Z,14.63
2017-08-24T05:58:07.459Z,14.69
2017-08-24T06:00:37.119Z,14.98
2017-08-24T06:03:06.624Z,14.92
2017-08-24T06:05:35.862Z,14.80
2017-08-24T06:08:05.555Z,14.94
2017-08-24T06:10:34.894Z,15.15
2017-08-24T06:13:04.139Z,15.66
2017-08-24T06:15:34.957Z,15.87
2017-08-24T06:18:04.186Z,15.71
2017-08-24T06:20:33.702Z,15.50
2017-08-24T06:23:03.578Z,15.28
2017-08-24T06:25:32.854Z,15.15
2017-08-24T06:28:02.125Z,15.45
2017-08-24T06:30:31.702Z,15.67
2017-08-24T06:33:00.895Z,16.04
2017-08-24T06:35:30.339Z,16.42
2017-08-24T06:37:59.826Z,16.57
2017-08-24T06:40:29.011Z,16.68
2017-08-24T06:42:58.204Z,16.26
2017-08-24T06:45:27.719Z,16.39
2017-08-24T06:47:57.056Z,16.53
2017-08-24T06:50:26.615Z,16.69
2017-08-24T06:52:56.197Z,16.86
2017-08-24T06:55:25.396Z,17.09
2017-08-24T06:57:54.551Z,16.98
2017-08-24T07:00:24.475Z,16.72
2017-08-24T07:02:54.137Z,16.86
2017-08-24T07:05:23.944Z,16.78
2017-08-24T07:07:53.936Z,17.03
2017-08-24T07:10:24.378Z,16.98
2017-08-24T07:12:54.254Z,16.88
2017-08-24T07:15:23.919Z,16.67
2017-08-24T07:17:53.480Z,16.83
2017-08-24T07:20:22.795Z,16.72
2017-08-24T07:22:52.462Z,16.87
2017-08-24T07:25:22.010Z,16.87
2017-08-24T07:27:51.796Z,16.98
2017-08-24T07:30:21.998Z,17.19
2017-08-24T07:32:52.126Z,17.00
2017-08-24T07:35:21.408Z,17.07
2017-08-24T07:37:52.311Z,16.94
2017-08-24T07:40:22.842Z,17.32
2017-08-24T07:42:52.240Z,17.27
2017-08-24T07:45:22.020Z,17.55
2017-08-24T07:47:52.706Z,17.50
2017-08-24T07:50:22.328Z,17.89
2017-08-24T07:52:52.328Z,17.73
2017-08-24T07:55:21.686Z,17.57
2017-08-24T07:57:52.799Z,17.36
2017-08-24T08:00:22.544Z,17.41
2017-08-24T08:02:52.755Z,18.21
2017-08-24T08:05:22.260Z,18.16
2017-08-24T08:07:52.431Z,17.97
2017-08-24T08:10:21.987Z,17.81
2017-08-24T08:12:57.278Z,17.78
2017-08-24T08:15:28.343Z,17.62
2017-08-24T08:17:57.625Z,17.63
2017-08-24T08:20:27.071Z,17.76
2017-08-24T08:22:57.967Z,18.16
2017-08-24T08:25:27.420Z,18.55
2017-08-24T08:27:56.707Z,18.15
2017-08-24T08:30:26.408Z,18.67
2017-08-24T08:32:55.908Z,18.74
2017-08-24T08:35:25.188Z,18.77
2017-08-24T08:37:55.183Z,19.26
2017-08-24T08:40:24.432Z,19.28
2017-08-24T08:42:53.674Z,18.46
2017-08-24T08:45:23.584Z,19.06
2017-08-24T08:47:53.238Z,19.52
2017-08-24T08:50:22.476Z,20.21
2017-08-24T08:52:52.278Z,20.20
2017-08-24T08:55:21.439Z,20.10
2017-08-24T08:57:52.943Z,20.82
2017-08-24T09:00:22.415Z,20.76
2017-08-24T09:02:51.906Z,21.03
2017-08-24T09:05:21.276Z,20.38
2017-08-24T09:07:53.735Z,21.29
2017-08-24T09:10:22.974Z,21.48
2017-08-24T09:12:52.711Z,20.59
2017-08-24T09:15:22.319Z,20.83
2017-08-24T09:17:52.193Z,20.23
2017-08-24T09:20:21.600Z,20.21
2017-08-24T09:22:52.259Z,20.26
2017-08-24T09:25:22.759Z,20.37
2017-08-24T09:27:53.332Z,21.33
2017-08-24T09:30:23.252Z,21.57
2017-08-24T09:32:52.423Z,22.05
2017-08-24T09:35:21.791Z,21.89
2017-08-24T09:37:52.348Z,22.57
2017-08-24T09:40:21.589Z,22.82
2017-08-24T09:42:52.256Z,22.56
2017-08-24T09:45:23.070Z,21.69
2017-08-24T09:47:52.660Z,21.83
2017-08-24T09:50:22.259Z,21.49
2017-08-24T09:52:52.551Z,21.60
2017-08-24T09:55:21.780Z,21.61
2017-08-24T09:57:52.423Z,21.79
2017-08-24T10:00:22.214Z,22.03
2017-08-24T10:02:52.639Z,22.33
2017-08-24T10:05:21.967Z,21.80
2017-08-24T10:07:52.156Z,21.85
2017-08-24T10:10:21.526Z,22.07
2017-08-24T10:12:52.313Z,22.17
2017-08-24T10:15:22.055Z,21.99
2017-08-24T10:17:52.123Z,21.41
2017-08-24T10:20:21.422Z,21.26
2017-08-24T10:22:52.325Z,21.41
2017-08-24T10:25:21.591Z,21.58
2017-08-24T10:27:52.610Z,21.34
2017-08-24T10:30:22.198Z,21.83
2017-08-24T10:32:51.944Z,21.87
2017-08-24T10:35:22.610Z,21.59
2017-08-24T10:37:52.072Z,21.64
2017-08-24T10:40:21.749Z,21.81
2017-08-24T10:42:52.219Z,21.71
2017-08-24T10:45:21.800Z,21.62
2017-08-24T10:47:51.995Z,22.41
2017-08-24T10:50:21.263Z,22.06
2017-08-24T10:52:52.407Z,22.01
2017-08-24T10:55:21.604Z,22.70
2017-08-24T10:57:53.114Z,22.52
2017-08-24T11:00:22.746Z,23.27
2017-08-24T11:02:52.791Z,22.71
2017-08-24T11:05:22.315Z,22.96
2017-08-24T11:07:52.127Z,23.19
2017-08-24T11:10:21.665Z,23.33
2017-08-24T11:12:52.871Z,23.36
2017-08-24T11:15:22.488Z,23.60
2017-08-24T11:17:52.196Z,23.31
2017-08-24T11:20:21.583Z,23.55
2017-08-24T11:22:52.201Z,23.50
2017-08-24T11:25:21.396Z,23.19
2017-08-24T11:27:52.299Z,22.76
2017-08-24T11:30:21.987Z,23.07
2017-08-24T11:32:52.596Z,23.17
2017-08-24T11:35:22.080Z,23.21
2017-08-24T11:37:52.654Z,23.52
2017-08-24T11:40:21.985Z,23.95
2017-08-24T11:42:52.251Z,23.67
2017-08-24T11:45:21.953Z,23.32
2017-08-24T11:47:54.010Z,23.59
2017-08-24T11:50:23.281Z,23.52
2017-08-24T11:52:52.847Z,23.99
2017-08-24T11:55:22.288Z,24.03
2017-08-24T11:57:52.606Z,24.17
2017-08-24T12:00:24.603Z,23.97
2017-08-24T12:02:55.055Z,24.28
2017-08-24T12:05:24.377Z,24.38
2017-08-24T12:07:54.059Z,24.69
2017-08-24T12:10:23.488Z,24.85
2017-08-24T12:12:52.731Z,25.20
2017-08-24T12:15:23.316Z,25.03
2017-08-24T12:17:52.639Z,24.74
2017-08-24T12:20:22.283Z,25.49
2017-08-24T12:22:52.159Z,25.02
2017-08-24T12:25:21.415Z,24.47
2017-08-24T12:27:50.723Z,24.46
2017-08-24T12:30:20.184Z,24.43
2017-08-24T12:32:49.715Z,24.60
2017-08-24T12:35:19.003Z,24.93
2017-08-24T12:37:52.547Z,25.23
2017-08-24T12:40:21.791Z,25.18
2017-08-24T12:42:51.016Z,24.96
2017-08-24T12:45:20.760Z,24.90
2017-08-24T12:47:51.034Z,24.75
2017-08-24T12:50:22.240Z,24.95
2017-08-24T12:52:52.263Z,24.85
2017-08-24T12:55:21.527Z,24.39
2017-08-24T12:57:50.779Z,24.40
2017-08-24T13:01:23.607Z,24.46
2017-08-24T13:03:53.156Z,24.85
2017-08-24T13:06:22.863Z,24.86
2017-08-24T13:08:52.065Z,24.85
2017-08-24T13:11:21.700Z,24.87
2017-08-24T13:16:24.490Z,25.29
2017-08-24T13:18:53.692Z,25.35
2017-08-24T13:21:23.687Z,24.92
2017-08-24T13:23:53.167Z,25.43
2017-08-24T13:26:22.456Z,24.48
2017-08-24T13:28:51.952Z,24.78
2017-08-24T13:31:21.269Z,24.98
2017-08-24T13:33:50.455Z,24.44
2017-08-24T13:36:19.932Z,24.64
2017-08-24T13:38:49.184Z,24.60
2017-08-24T13:41:18.540Z,24.89
2017-08-24T13:43:48.199Z,24.32
2017-08-24T13:46:18.480Z,24.56
2017-08-24T13:48:47.756Z,24.43
2017-08-24T13:51:17.278Z,24.44
2017-08-24T13:53:46.718Z,24.35
2017-08-24T13:56:16.074Z,24.50
2017-08-24T13:58:46.807Z,24.52
2017-08-24T14:01:16.098Z,24.65
2017-08-24T14:03:45.460Z,24.72
2017-08-24T14:06:14.944Z,24.75
2017-08-24T14:08:44.138Z,24.69
2017-08-24T14:11:13.410Z,25.17
2017-08-24T14:13:43.008Z,24.98
2017-08-24T14:16:12.445Z,24.79
2017-08-24T14:18:41.851Z,24.49
2017-08-24T14:21:11.723Z,24.51
2017-08-24T14:23:41.275Z,24.73
2017-08-24T14:26:10.695Z,24.72
2017-08-24T14:28:40.420Z,24.40
2017-08-24T14:31:09.806Z,24.39
2017-08-24T14:33:39.227Z,23.94
2017-08-24T14:36:09.179Z,24.01
2017-08-24T14:38:38.555Z,23.63
2017-08-24T14:41:08.502Z,23.73
2017-08-24T14:43:38.913Z,23.65
2017-08-24T14:46:08.360Z,23.58
2017-08-24T14:48:37.935Z,23.48
2017-08-24T14:51:07.521Z,23.62
2017-08-24T14:53:38.087Z,23.54
2017-08-24T14:56:08.494Z,23.81
2017-08-24T14:58:39.452Z,23.57
2017-08-24T15:01:09.152Z,23.74
2017-08-24T15:03:38.532Z,23.96
2017-08-24T15:06:08.147Z,23.60
2017-08-24T15:08:39.656Z,23.56
2017-08-24T15:11:10.386Z,23.48
2017-08-24T15:13:40.028Z,23.37
2017-08-24T15:16:09.325Z,23.51
2017-08-24T15:18:39.639Z,23.44
2017-08-24T15:21:09.262Z,23.69
2017-08-24T15:23:40.603Z,23.66
2017-08-24T15:26:10.866Z,23.52
2017-08-24T15:28:40.688Z,23.55
2017-08-24T15:31:10.142Z,23.29
2017-08-24T15:33:39.416Z,23.35
2017-08-24T15:36:09.238Z,23.37
2017-08-24T15:38:38.758Z,23.31
2017-08-24T15:41:08.148Z,23.35
2017-08-24T15:43:38.784Z,23.33
2017-08-24T15:46:07.999Z,23.14
2017-08-24T15:48:42.731Z,23.34
2017-08-24T15:51:12.225Z,23.41
2017-08-24T15:53:41.560Z,23.52
2017-08-24T15:56:11.164Z,23.28
2017-08-24T15:58:40.918Z,23.45
2017-08-24T16:01:10.310Z,23.42
2017-08-24T16:03:40.016Z,23.43
2017-08-24T16:06:09.555Z,23.43
2017-08-24T16:08:39.000Z,23.34
2017-08-24T16:11:08.218Z,23.27
2017-08-24T16:13:40.363Z,23.35
2017-08-24T16:16:09.689Z,23.32
2017-08-24T16:18:39.305Z,23.30
2017-08-24T16:21:09.015Z,23.30
2017-08-24T16:23:38.358Z,23.42
2017-08-24T16:26:07.879Z,23.09
2017-08-24T16:28:37.527Z,23.23
2017-08-24T16:31:06.876Z,23.05
2017-08-24T16:33:38.307Z,23.15
2017-08-24T16:36:07.880Z,23.00
2017-08-24T16:38:38.410Z,22.97
2017-08-24T16:41:07.680Z,22.91
2017-08-24T16:43:39.348Z,22.81
2017-08-24T16:46:09.183Z,22.82
2017-08-24T16:48:38.900Z,22.94
2017-08-24T16:51:08.395Z,23.13
2017-08-24T16:53:39.449Z,23.01
2017-08-24T16:56:08.807Z,22.97
2017-08-24T16:58:38.422Z,22.99
2017-08-24T17:01:07.625Z,22.75
2017-08-24T17:03:38.249Z,22.70
2017-08-24T17:06:07.747Z,22.58
2017-08-24T17:08:38.851Z,22.79
2017-08-24T17:11:08.440Z,22.83
2017-08-24T17:13:38.056Z,22.72
2017-08-24T17:16:08.117Z,22.76
2017-08-24T17:18:37.384Z,22.61
2017-08-24T17:21:06.884Z,22.69
2017-08-24T17:23:39.625Z,22.60
2017-08-24T17:26:08.995Z,22.52
2017-08-24T17:28:38.948Z,22.41
2017-08-24T17:31:08.181Z,22.40
2017-08-24T17:33:37.960Z,22.04
2017-08-24T17:36:07.738Z,22.17
2017-08-24T17:38:37.272Z,21.92
2017-08-24T17:41:06.616Z,21.92
2017-08-24T17:43:36.361Z,21.79
2017-08-24T17:46:05.652Z,21.70
2017-08-24T17:48:35.348Z,21.70
2017-08-24T17:51:04.985Z,21.63
2017-08-24T17:53:35.876Z,21.58
2017-08-24T17:56:05.314Z,21.56
2017-08-24T17:58:35.134Z,21.40
2017-08-24T18:01:04.792Z,21.23
2017-08-24T18:03:35.488Z,21.15
2017-08-24T18:06:05.092Z,21.18
2017-08-24T18:08:35.017Z,21.14
2017-08-24T18:11:04.764Z,21.12
2017-08-24T18:13:36.767Z,20.91
2017-08-24T18:16:06.553Z,20.99
2017-08-24T18:18:36.245Z,20.88
2017-08-24T18:21:07.648Z,20.69
2017-08-24T18:23:37.017Z,20.71
2017-08-24T18:26:06.478Z,20.59
2017-08-24T18:28:36.497Z,20.38
2017-08-24T18:31:06.339Z,20.39
2017-08-24T18:33:39.362Z,19.98
2017-08-24T18:36:08.946Z,19.81
2017-08-24T18:38:40.731Z,19.79
2017-08-24T18:41:09.931Z,19.90
2017-08-24T18:43:40.427Z,19.95
2017-08-24T18:46:09.748Z,19.60
2017-08-24T18:48:40.174Z,19.64
2017-08-24T18:51:09.677Z,19.70
2017-08-24T18:53:39.060Z,19.72
2017-08-24T18:56:08.443Z,19.79
2017-08-24T18:58:38.259Z,19.75
2017-08-24T19:01:07.686Z,19.71
2017-08-24T19:03:38.153Z,19.70
2017-08-24T19:06:07.902Z,19.75
2017-08-24T19:08:37.306Z,19.70
2017-08-24T19:11:06.556Z,19.74
2017-08-24T19:13:36.195Z,19.74
2017-08-24T19:16:06.050Z,19.58
2017-08-24T19:18:35.471Z,19.49
2017-08-24T19:21:05.800Z,19.44
2017-08-24T19:23:35.412Z,19.54
2017-08-24T19:26:04.881Z,19.57
2017-08-24T19:28:34.615Z,19.54
2017-08-24T19:31:03.920Z,19.27
2017-08-24T19:33:33.263Z,19.31
2017-08-24T19:36:03.327Z,19.10
2017-08-24T19:38:32.523Z,19.20
2017-08-24T19:41:01.794Z,19.22
2017-08-24T19:43:31.319Z,19.10
2017-08-24T19:46:00.929Z,19.20
2017-08-24T19:48:30.352Z,19.16
2017-08-24T19:50:59.838Z,19.10
2017-08-24T19:53:29.144Z,19.06
2017-08-24T19:55:58.506Z,18.92
2017-08-24T19:58:29.317Z,18.76
2017-08-24T20:00:59.020Z,18.84
2017-08-24T20:03:28.430Z,18.82
2017-08-24T20:05:58.345Z,18.82
2017-08-24T20:08:27.744Z,18.90
2017-08-24T20:10:57.391Z,18.90
2017-08-24T20:13:26.648Z,18.87
2017-08-24T20:15:55.832Z,18.77
2017-08-24T20:18:25.585Z,18.70
2017-08-24T20:20:54.923Z,18.63
2017-08-24T20:23:24.340Z,18.57
2017-08-24T20:25:55.243Z,18.48
2017-08-24T20:28:25.734Z,18.14
2017-08-24T20:30:55.175Z,17.96
2017-08-24T20:33:25.050Z,18.17
2017-08-24T20:35:55.127Z,18.22
2017-08-24T20:38:24.747Z,18.15
2017-08-24T20:40:54.651Z,18.17
2017-08-24T20:43:24.034Z,18.02
2017-08-24T20:45:53.274Z,18.12
2017-08-24T20:48:23.582Z,18.07
2017-08-24T20:50:53.211Z,17.76
2017-08-24T20:53:23.059Z,17.81
2017-08-24T20:55:53.047Z,17.89
2017-08-24T20:58:22.327Z,17.84
2017-08-24T21:00:51.640Z,17.84
2017-08-24T21:03:21.498Z,17.86
2017-08-24T21:05:50.844Z,17.89
2017-08-24T21:08:20.515Z,17.90
2017-08-24T21:10:50.023Z,17.84
2017-08-24T21:13:20.227Z,17.86
2017-08-24T21:15:49.484Z,17.76
2017-08-24T21:18:22.399Z,17.82
2017-08-24T21:20:51.911Z,17.73
2017-08-24T21:23:21.175Z,17.71
2017-08-24T21:25:50.973Z,17.72
2017-08-24T21:28:20.319Z,17.66
2017-08-24T21:30:52.059Z,17.69
2017-08-24T21:33:22.935Z,17.66
2017-08-24T21:35:52.145Z,17.66
2017-08-24T21:38:24.252Z,17.64
2017-08-24T21:40:53.766Z,17.62
2017-08-24T21:43:23.035Z,17.58
2017-08-24T21:45:53.483Z,17.55
2017-08-24T21:48:23.419Z,17.59
2017-08-24T21:51:07.851Z,17.50
2017-08-24T21:53:42.071Z,17.49
2017-08-24T21:56:16.653Z,17.45
2017-08-24T21:58:48.524Z,17.42
2017-08-24T22:01:19.530Z,17.39
2017-08-24T22:03:49.105Z,17.09
2017-08-24T22:06:21.190Z,17.11
2017-08-24T22:08:50.582Z,17.14
2017-08-24T22:11:22.012Z,17.09
2017-08-24T22:13:53.347Z,16.97
2017-08-24T22:16:22.788Z,17.07
2017-08-24T22:18:52.260Z,17.09
2017-08-24T22:21:22.042Z,17.13
2017-08-24T22:23:51.467Z,17.12
2017-08-24T22:26:20.713Z,17.12
2017-08-24T22:28:50.162Z,17.06
2017-08-24T22:31:20.031Z,17.06
2017-08-24T22:33:49.219Z,17.06
2017-08-24T22:36:20.234Z,16.95
2017-08-24T22:38:52.411Z,16.97
2017-08-24T22:41:21.844Z,16.64
2017-08-24T22:43:52.945Z,16.49
2017-08-24T22:46:29.904Z,16.63
2017-08-24T22:48:59.411Z,16.24
2017-08-24T22:51:28.684Z,16.57
2017-08-24T22:54:21.879Z,16.39
2017-08-24T22:58:57.608Z,16.60
2017-08-24T23:03:35.108Z,16.54
2017-08-24T23:06:04.755Z,16.60
2017-08-24T23:08:34.275Z,16.44
2017-08-24T23:11:03.563Z,16.55
2017-08-24T23:13:32.811Z,16.52
2017-08-24T23:16:02.489Z,16.39
2017-08-24T23:18:31.727Z,16.29
2017-08-24T23:21:00.991Z,16.37
2017-08-24T23:23:30.774Z,16.44
2017-08-24T23:26:00.087Z,16.18
2017-08-24T23:28:29.532Z,16.20
2017-08-24T23:30:59.547Z,16.14
2017-08-24T23:33:29.318Z,16.12
2017-08-24T23:35:58.487Z,16.27
2017-08-24T23:38:31.052Z,16.19
2017-08-24T23:41:02.961Z,16.28
2017-08-24T23:43:33.736Z,16.31
2017-08-24T23:46:10.220Z,16.29
2017-08-24T23:48:40.000Z,16.13
2017-08-24T23:51:09.934Z,16.13
2017-08-24T23:53:42.215Z,16.10
2017-08-24T23:56:11.728Z,15.86
2017-08-24T23:58:41.462Z,15.97
